sensor_id;sensor_type;location;lat;lon;timestamp;pressure;altitude;pressure_sealevel;temperature;humidity
54592;BME280;40488;48.558;18.150;2022-07-30T17:56:20;99241.81;;;21.97;78.12
54592;BME280;40488;48.558;18.150;2022-07-30T17:58:53;99242.22;;;21.89;78.04
54592;BME280;40488;48.558;18.150;2022-07-30T18:01:21;99234.31;;;21.91;78.00
54592;BME280;40488;48.558;18.150;2022-07-30T18:03:50;99241.53;;;21.86;78.00
54592;BME280;40488;48.558;18.150;2022-07-30T18:06:18;99240.72;;;21.85;78.00
54592;BME280;40488;48.558;18.150;2022-07-30T18:08:47;99244.28;;;21.83;78.01
54592;BME280;40488;48.558;18.150;2022-07-30T18:11:16;99238.16;;;21.84;78.23
54592;BME280;40488;48.558;18.150;2022-07-30T18:13:46;99242.31;;;21.88;77.89
54592;BME280;40488;48.558;18.150;2022-07-30T18:16:15;99235.00;;;21.94;77.38
54592;BME280;40488;48.558;18.150;2022-07-30T18:18:43;99233.25;;;21.95;77.06
54592;BME280;40488;48.558;18.150;2022-07-30T18:21:12;99234.31;;;21.91;77.58
54592;BME280;40488;48.558;18.150;2022-07-30T18:23:40;99239.38;;;21.94;77.47
54592;BME280;40488;48.558;18.150;2022-07-30T18:26:08;99237.84;;;21.90;77.28
54592;BME280;40488;48.558;18.150;2022-07-30T18:28:37;99233.50;;;21.90;77.47
54592;BME280;40488;48.558;18.150;2022-07-30T18:31:07;99230.13;;;21.88;77.06
54592;BME280;40488;48.558;18.150;2022-07-30T18:33:36;99222.56;;;21.84;77.02
54592;BME280;40488;48.558;18.150;2022-07-30T18:36:04;99230.13;;;21.88;76.76
54592;BME280;40488;48.558;18.150;2022-07-30T18:38:33;99220.72;;;21.86;76.67
54592;BME280;40488;48.558;18.150;2022-07-30T18:41:02;99223.75;;;21.78;76.83
54592;BME280;40488;48.558;18.150;2022-07-30T18:43:30;99218.00;;;21.72;76.58
54592;BME280;40488;48.558;18.150;2022-07-30T18:46:16;99224.56;;;21.79;76.45
54592;BME280;40488;48.558;18.150;2022-07-30T18:48:44;99221.97;;;21.79;76.21
54592;BME280;40488;48.558;18.150;2022-07-30T18:51:14;99224.56;;;21.79;75.85
54592;BME280;40488;48.558;18.150;2022-07-30T18:53:44;99214.16;;;21.79;75.96
54592;BME280;40488;48.558;18.150;2022-07-30T18:56:13;99222.22;;;21.74;75.75
54592;BME280;40488;48.558;18.150;2022-07-30T18:58:42;99225.06;;;21.70;76.10
54592;BME280;40488;48.558;18.150;2022-07-30T19:01:10;99220.94;;;21.66;76.12
54592;BME280;40488;48.558;18.150;2022-07-30T19:03:40;99224.63;;;21.62;76.28
54592;BME280;40488;48.558;18.150;2022-07-30T19:06:09;99223.69;;;21.63;76.17
54592;BME280;40488;48.558;18.150;2022-07-30T19:08:37;99219.44;;;21.62;76.29
54592;BME280;40488;48.558;18.150;2022-07-30T19:11:06;99220.19;;;21.64;76.50
54592;BME280;40488;48.558;18.150;2022-07-30T19:13:35;99222.78;;;21.64;76.30
54592;BME280;40488;48.558;18.150;2022-07-30T19:16:05;99226.38;;;21.61;76.55
54592;BME280;40488;48.558;18.150;2022-07-30T19:18:34;99227.25;;;21.62;76.53
54592;BME280;40488;48.558;18.150;2022-07-30T19:21:04;99230.00;;;21.59;76.32
54592;BME280;40488;48.558;18.150;2022-07-30T19:23:39;99223.19;;;21.56;76.47
54592;BME280;40488;48.558;18.150;2022-07-30T19:26:07;99232.59;;;21.59;76.68
54592;BME280;40488;48.558;18.150;2022-07-30T19:28:36;99231.75;;;21.58;76.12
54592;BME280;40488;48.558;18.150;2022-07-30T19:31:05;99233.06;;;21.50;76.46
54592;BME280;40488;48.558;18.150;2022-07-30T19:33:34;99235.88;;;21.45;76.72
54592;BME280;40488;48.558;18.150;2022-07-30T19:36:03;99248.34;;;21.38;76.89
54592;BME280;40488;48.558;18.150;2022-07-30T19:38:33;99247.59;;;21.36;77.06
54592;BME280;40488;48.558;18.150;2022-07-30T19:41:03;99250.28;;;21.35;76.98
54592;BME280;40488;48.558;18.150;2022-07-30T19:43:32;99243.41;;;21.34;77.27
54592;BME280;40488;48.558;18.150;2022-07-30T19:46:03;99252.94;;;21.33;77.13
54592;BME280;40488;48.558;18.150;2022-07-30T19:48:32;99244.88;;;21.22;76.88
54592;BME280;40488;48.558;18.150;2022-07-30T19:51:03;99254.34;;;21.23;76.58
54592;BME280;40488;48.558;18.150;2022-07-30T19:53:47;99246.22;;;21.29;76.12
54592;BME280;40488;48.558;18.150;2022-07-30T19:56:15;99244.72;;;21.25;75.93
54592;BME280;40488;48.558;18.150;2022-07-30T19:58:45;99240.44;;;21.24;75.68
54592;BME280;40488;48.558;18.150;2022-07-30T20:01:14;99239.28;;;21.30;75.15
54592;BME280;40488;48.558;18.150;2022-07-30T20:03:42;99237.69;;;21.27;75.27
54592;BME280;40488;48.558;18.150;2022-07-30T20:06:11;99238.78;;;21.23;75.28
54592;BME280;40488;48.558;18.150;2022-07-30T20:08:42;99243.19;;;21.21;75.48
54592;BME280;40488;48.558;18.150;2022-07-30T20:11:12;99242.00;;;21.11;75.26
54592;BME280;40488;48.558;18.150;2022-07-30T20:14:00;99238.47;;;21.12;75.24
54592;BME280;40488;48.558;18.150;2022-07-30T20:16:29;99235.13;;;21.10;75.26
54592;BME280;40488;48.558;18.150;2022-07-30T20:18:57;99228.41;;;21.06;75.34
54592;BME280;40488;48.558;18.150;2022-07-30T20:21:29;99232.03;;;21.02;75.44
54592;BME280;40488;48.558;18.150;2022-07-30T20:24:17;99241.88;;;20.96;75.56
54592;BME280;40488;48.558;18.150;2022-07-30T20:26:48;99227.44;;;20.90;75.93
54592;BME280;40488;48.558;18.150;2022-07-30T20:29:16;99230.50;;;20.81;76.30
54592;BME280;40488;48.558;18.150;2022-07-30T20:31:46;99229.88;;;20.76;76.16
54592;BME280;40488;48.558;18.150;2022-07-30T20:34:15;99226.66;;;20.71;76.39
54592;BME280;40488;48.558;18.150;2022-07-30T20:36:51;99227.00;;;20.65;76.74
54592;BME280;40488;48.558;18.150;2022-07-30T20:39:23;99220.72;;;20.69;76.20
54592;BME280;40488;48.558;18.150;2022-07-30T20:41:53;99226.06;;;20.66;76.36
54592;BME280;40488;48.558;18.150;2022-07-30T20:44:37;99227.84;;;20.65;76.32
54592;BME280;40488;48.558;18.150;2022-07-30T20:47:09;99231.31;;;20.64;76.08
54592;BME280;40488;48.558;18.150;2022-07-30T20:49:40;99231.19;;;20.67;75.85
54592;BME280;40488;48.558;18.150;2022-07-30T20:52:09;99227.75;;;20.67;75.86
54592;BME280;40488;48.558;18.150;2022-07-30T20:54:38;99234.16;;;20.60;76.05
54592;BME280;40488;48.558;18.150;2022-07-30T20:57:12;99224.06;;;20.54;76.49
54592;BME280;40488;48.558;18.150;2022-07-30T21:00:01;99222.25;;;20.56;76.43
54592;BME280;40488;48.558;18.150;2022-07-30T21:02:29;99232.91;;;20.50;76.35
54592;BME280;40488;48.558;18.150;2022-07-30T21:04:58;99229.25;;;20.54;76.79
54592;BME280;40488;48.558;18.150;2022-07-30T21:07:27;99234.25;;;20.58;76.39
54592;BME280;40488;48.558;18.150;2022-07-30T21:10:15;99239.41;;;20.58;76.12
54592;BME280;40488;48.558;18.150;2022-07-30T21:12:51;99237.34;;;20.65;75.24
54592;BME280;40488;48.558;18.150;2022-07-30T21:15:30;99231.09;;;20.69;74.84
54592;BME280;40488;48.558;18.150;2022-07-30T21:17:59;99225.00;;;20.70;74.24
54592;BME280;40488;48.558;18.150;2022-07-30T21:20:28;99232.66;;;20.73;73.81
54592;BME280;40488;48.558;18.150;2022-07-30T21:23:01;99231.44;;;20.80;73.63
54592;BME280;40488;48.558;18.150;2022-07-30T21:25:31;99232.09;;;20.84;73.00
54592;BME280;40488;48.558;18.150;2022-07-30T21:28:01;99226.78;;;20.87;72.65
54592;BME280;40488;48.558;18.150;2022-07-30T21:30:31;99230.22;;;20.87;72.52
54592;BME280;40488;48.558;18.150;2022-07-30T21:32:59;99237.69;;;20.93;71.99
54592;BME280;40488;48.558;18.150;2022-07-30T21:35:28;99239.66;;;20.88;71.91
54592;BME280;40488;48.558;18.150;2022-07-30T21:37:58;99237.81;;;20.90;71.97
54592;BME280;40488;48.558;18.150;2022-07-30T21:40:26;99242.25;;;20.88;71.63
54592;BME280;40488;48.558;18.150;2022-07-30T21:42:55;99248.50;;;20.84;71.42
54592;BME280;40488;48.558;18.150;2022-07-30T21:45:25;99236.75;;;20.77;71.42
54592;BME280;40488;48.558;18.150;2022-07-30T21:48:05;99237.03;;;20.71;71.11
54592;BME280;40488;48.558;18.150;2022-07-30T21:50:37;99232.94;;;20.67;70.87
54592;BME280;40488;48.558;18.150;2022-07-30T21:53:07;99233.56;;;20.72;70.99
54592;BME280;40488;48.558;18.150;2022-07-30T21:55:35;99232.69;;;20.71;70.58
54592;BME280;40488;48.558;18.150;2022-07-30T21:58:19;99223.47;;;20.66;70.46
54592;BME280;40488;48.558;18.150;2022-07-30T22:01:01;99231.19;;;20.67;70.18
54592;BME280;40488;48.558;18.150;2022-07-30T22:03:44;99227.00;;;20.65;70.04
54592;BME280;40488;48.558;18.150;2022-07-30T22:06:33;99228.66;;;20.66;69.69
54592;BME280;40488;48.558;18.150;2022-07-30T22:09:22;99218.44;;;20.63;69.78
54592;BME280;40488;48.558;18.150;2022-07-30T22:12:00;99224.31;;;20.66;69.81
54592;BME280;40488;48.558;18.150;2022-07-30T22:14:38;99223.31;;;20.69;69.71
54592;BME280;40488;48.558;18.150;2022-07-30T22:17:08;99223.31;;;20.69;69.55
54592;BME280;40488;48.558;18.150;2022-07-30T22:19:49;99221.66;;;20.68;69.67
54592;BME280;40488;48.558;18.150;2022-07-30T22:22:18;99221.09;;;20.61;69.99
54592;BME280;40488;48.558;18.150;2022-07-30T22:24:54;99215.91;;;20.61;70.25
54592;BME280;40488;48.558;18.150;2022-07-30T22:27:26;99211.66;;;20.60;70.24
54592;BME280;40488;48.558;18.150;2022-07-30T22:30:15;99198.69;;;20.60;70.24
54592;BME280;40488;48.558;18.150;2022-07-30T22:32:45;99199.69;;;20.58;70.67
54592;BME280;40488;48.558;18.150;2022-07-30T22:35:14;99204.88;;;20.58;70.53
54592;BME280;40488;48.558;18.150;2022-07-30T22:37:58;99207.91;;;20.66;70.20
54592;BME280;40488;48.558;18.150;2022-07-30T22:40:26;99208.13;;;20.61;70.51
54592;BME280;40488;48.558;18.150;2022-07-30T22:42:55;99204.72;;;20.61;70.41
54592;BME280;40488;48.558;18.150;2022-07-30T22:45:24;99211.72;;;20.59;70.15
54592;BME280;40488;48.558;18.150;2022-07-30T22:48:14;99204.91;;;20.56;69.90
54592;BME280;40488;48.558;18.150;2022-07-30T22:50:45;99209.44;;;20.53;69.97
54592;BME280;40488;48.558;18.150;2022-07-30T22:53:17;99207.47;;;20.58;70.00
54592;BME280;40488;48.558;18.150;2022-07-30T22:56:06;99197.69;;;20.63;69.87
54592;BME280;40488;48.558;18.150;2022-07-30T22:58:42;99192.34;;;20.66;69.90
54592;BME280;40488;48.558;18.150;2022-07-30T23:01:14;99198.38;;;20.66;69.75
54592;BME280;40488;48.558;18.150;2022-07-30T23:03:45;99198.38;;;20.66;69.78
54592;BME280;40488;48.558;18.150;2022-07-30T23:06:14;99190.69;;;20.65;69.61
54592;BME280;40488;48.558;18.150;2022-07-30T23:08:46;99197.09;;;20.58;69.77
54592;BME280;40488;48.558;18.150;2022-07-30T23:11:15;99184.25;;;20.55;69.88
54592;BME280;40488;48.558;18.150;2022-07-30T23:13:43;99190.53;;;20.51;69.84
54592;BME280;40488;48.558;18.150;2022-07-30T23:16:12;99184.41;;;20.52;69.93
54592;BME280;40488;48.558;18.150;2022-07-30T23:18:40;99184.72;;;20.46;70.03
54592;BME280;40488;48.558;18.150;2022-07-30T23:21:12;99196.31;;;20.39;70.61
54592;BME280;40488;48.558;18.150;2022-07-30T23:23:41;99189.41;;;20.38;71.01
54592;BME280;40488;48.558;18.150;2022-07-30T23:26:09;99189.50;;;20.36;71.14
54592;BME280;40488;48.558;18.150;2022-07-30T23:28:38;99194.69;;;20.36;71.32
54592;BME280;40488;48.558;18.150;2022-07-30T23:31:06;99189.06;;;20.45;71.21
54592;BME280;40488;48.558;18.150;2022-07-30T23:33:34;99191.72;;;20.44;71.27
54592;BME280;40488;48.558;18.150;2022-07-30T23:36:03;99191.88;;;20.41;71.25
54592;BME280;40488;48.558;18.150;2022-07-30T23:38:33;99196.31;;;20.39;71.41
54592;BME280;40488;48.558;18.150;2022-07-30T23:41:03;99196.16;;;20.42;71.54
54592;BME280;40488;48.558;18.150;2022-07-30T23:43:33;99202.88;;;20.46;71.16
54592;BME280;40488;48.558;18.150;2022-07-30T23:46:01;99207.13;;;20.47;71.02
54592;BME280;40488;48.558;18.150;2022-07-30T23:48:35;99200.13;;;20.49;70.88
54592;BME280;40488;48.558;18.150;2022-07-30T23:51:03;99205.31;;;20.49;70.98
54592;BME280;40488;48.558;18.150;2022-07-30T23:53:33;99203.16;;;20.40;71.33
54592;BME280;40488;48.558;18.150;2022-07-30T23:56:02;99204.91;;;20.39;71.11
54592;BME280;40488;48.558;18.150;2022-07-30T23:58:30;99203.00;;;20.43;70.83
